createdAt,value
2019-04-05T00:04:37.831Z,97095.75
2019-04-05T00:09:42.901Z,97088.09
2019-04-05T00:14:48.660Z,97081.33
2019-04-05T00:19:53.490Z,97089.88
2019-04-05T00:24:58.548Z,97085.09
2019-04-05T00:30:03.208Z,97079.02
2019-04-05T00:35:08.247Z,97071.46
2019-04-05T00:40:14.333Z,97077.61
2019-04-05T00:45:27.892Z,97078.30
2019-04-05T00:50:25.807Z,97080.55
2019-04-05T00:55:30.687Z,97073.55
2019-04-05T01:00:35.530Z,97070.56
2019-04-05T01:05:40.275Z,97077.87
2019-04-05T01:10:45.115Z,97080.84
2019-04-05T01:15:51.043Z,97097.00
2019-04-05T01:20:55.975Z,97087.06
2019-04-05T01:26:01.508Z,97076.28
2019-04-05T01:31:06.241Z,97083.92
2019-04-05T01:36:11.090Z,97073.89
2019-04-05T01:41:17.474Z,97087.48
2019-04-05T01:46:22.115Z,97080.94
2019-04-05T01:51:26.970Z,97074.36
2019-04-05T01:56:33.323Z,97071.09
2019-04-05T02:01:38.362Z,97062.52
2019-04-05T02:06:43.231Z,97061.32
2019-04-05T02:11:47.972Z,97059.92
2019-04-05T02:16:52.943Z,97072.72
2019-04-05T02:21:57.857Z,97067.11
2019-04-05T02:27:02.815Z,97074.29
2019-04-05T02:32:07.564Z,97077.16
2019-04-05T02:37:12.632Z,97079.88
2019-04-05T02:42:17.504Z,97081.63
2019-04-05T02:47:23.870Z,97089.67
2019-04-05T02:52:28.581Z,97091.36
2019-04-05T02:57:33.377Z,97082.16
2019-04-05T03:02:38.522Z,97080.87
2019-04-05T03:07:43.253Z,97089.47
2019-04-05T03:12:48.261Z,97093.97
2019-04-05T03:17:53.027Z,97095.95
2019-04-05T03:22:57.781Z,97099.75
2019-04-05T03:28:02.493Z,97108.27
2019-04-05T03:33:07.149Z,97106.08
2019-04-05T03:38:12.035Z,97106.28
2019-04-05T03:43:16.611Z,97110.83
2019-04-05T03:48:21.365Z,97115.17
2019-04-05T03:53:26.106Z,97111.66
2019-04-05T03:58:30.954Z,97115.72
2019-04-05T04:03:35.597Z,97121.20
2019-04-05T04:08:40.361Z,97130.72
2019-04-05T04:13:45.297Z,97133.80
2019-04-05T04:18:50.102Z,97135.69
2019-04-05T04:23:55.099Z,97132.16
2019-04-05T04:28:59.924Z,97132.80
2019-04-05T04:34:05.798Z,97139.80
2019-04-05T04:39:10.759Z,97140.88
2019-04-05T04:44:15.601Z,97149.11
2019-04-05T04:49:20.891Z,97136.08
2019-04-05T04:54:26.662Z,97136.80
2019-04-05T04:59:31.448Z,97130.63
2019-04-05T05:04:36.499Z,97139.56
2019-04-05T05:09:41.349Z,97138.15
2019-04-05T05:14:47.827Z,97132.55
2019-04-05T05:19:52.670Z,97136.92
2019-04-05T05:24:57.687Z,97152.29
2019-04-05T05:30:02.681Z,97150.27
2019-04-05T05:35:07.871Z,97147.37
2019-04-05T05:40:12.801Z,97151.69
2019-04-05T05:45:17.632Z,97150.46
2019-04-05T05:50:22.362Z,97138.67
2019-04-05T05:55:30.206Z,97137.98
2019-04-05T06:00:35.133Z,97129.59
2019-04-05T06:05:40.070Z,97121.73
2019-04-05T06:10:44.863Z,97120.59
2019-04-05T06:15:49.479Z,97113.11
2019-04-05T06:20:54.811Z,97111.91
2019-04-05T06:25:59.713Z,97102.15
2019-04-05T06:31:04.613Z,97097.47
2019-04-05T06:36:09.765Z,97099.69
2019-04-05T06:41:14.605Z,97103.71
2019-04-05T06:46:20.031Z,97104.69
2019-04-05T06:51:25.166Z,97103.27
2019-04-05T06:56:29.990Z,97100.37
2019-04-05T07:01:34.771Z,97099.34
2019-04-05T07:06:39.447Z,97089.76
2019-04-05T07:11:44.654Z,97098.88
2019-04-05T07:16:51.235Z,97099.34
2019-04-05T07:21:56.295Z,97099.67
2019-04-05T07:27:01.201Z,97091.83
2019-04-05T07:32:06.499Z,97096.48
2019-04-05T07:37:11.933Z,97094.28
2019-04-05T07:42:16.748Z,97091.63
2019-04-05T07:47:24.375Z,97086.36
2019-04-05T07:52:29.109Z,97085.09
2019-04-05T07:57:33.938Z,97089.50
2019-04-05T08:02:38.691Z,97083.50
2019-04-05T08:07:46.418Z,97081.59
2019-04-05T08:12:51.320Z,97079.22
2019-04-05T08:17:56.097Z,97067.64
2019-04-05T08:23:01.443Z,97064.04
2019-04-05T08:28:06.764Z,97057.14
2019-04-05T08:33:11.862Z,97054.54
2019-04-05T08:38:16.922Z,97045.20
2019-04-05T08:43:21.735Z,97030.44
2019-04-05T08:48:26.712Z,97029.86
2019-04-05T08:53:31.484Z,97017.43
2019-04-05T08:58:37.901Z,97011.55
2019-04-05T09:03:42.590Z,97005.78
2019-04-05T09:08:47.317Z,96996.19
2019-04-05T09:13:52.277Z,96994.73
2019-04-05T09:18:58.239Z,96994.03
2019-04-05T09:24:03.118Z,96992.78
2019-04-05T09:29:09.489Z,96989.05
2019-04-05T09:34:14.626Z,96989.66
2019-04-05T09:39:19.365Z,96977.39
2019-04-05T09:44:24.904Z,96977.44
2019-04-05T09:49:36.571Z,96973.13
2019-04-05T09:54:36.062Z,96975.78
2019-04-05T09:59:41.095Z,96958.20
2019-04-05T10:04:46.018Z,96959.11
2019-04-05T10:09:52.445Z,96948.11
2019-04-05T10:14:57.224Z,96950.74
2019-04-05T10:20:02.029Z,96945.18
2019-04-05T10:25:07.384Z,96930.42
2019-04-05T10:30:12.950Z,96929.52
2019-04-05T10:35:17.796Z,96935.20
2019-04-05T10:40:22.397Z,96927.59
2019-04-05T10:45:28.824Z,96922.11
2019-04-05T10:50:33.382Z,96920.74
2019-04-05T10:55:38.408Z,96923.09
2019-04-05T11:00:43.345Z,96925.39
2019-04-05T11:05:49.397Z,96923.92
2019-04-05T11:10:54.901Z,96910.88
2019-04-05T11:15:59.597Z,96915.48
2019-04-05T11:21:04.387Z,96902.36
2019-04-05T11:26:09.200Z,96903.13
2019-04-05T11:31:14.078Z,96908.22
2019-04-05T11:36:18.967Z,96904.27
2019-04-05T11:41:23.782Z,96894.55
2019-04-05T11:46:28.862Z,96889.67
2019-04-05T11:51:33.535Z,96888.38
2019-04-05T11:56:38.116Z,96890.23
2019-04-05T12:01:47.347Z,96889.72
2019-04-05T12:06:52.551Z,96881.30
2019-04-05T12:11:57.587Z,96885.97
2019-04-05T12:17:05.270Z,96883.36
2019-04-05T12:22:10.453Z,96873.19
2019-04-05T12:27:15.056Z,96872.55
2019-04-05T12:32:32.920Z,96868.67
2019-04-05T12:37:28.417Z,96860.65
2019-04-05T12:42:33.275Z,96857.64
2019-04-05T12:47:40.043Z,96857.61
2019-04-05T12:52:44.815Z,96848.43
2019-04-05T12:57:49.560Z,96844.11
2019-04-05T13:02:56.871Z,96841.58
2019-04-05T13:08:00.588Z,96836.97
2019-04-05T13:13:05.332Z,96827.48
2019-04-05T13:18:09.969Z,96824.45
2019-04-05T13:23:15.664Z,96822.48
2019-04-05T13:28:20.582Z,96815.33
2019-04-05T13:33:28.879Z,96812.12
2019-04-05T13:38:33.001Z,96812.86
2019-04-05T13:43:39.156Z,96811.33
2019-04-05T13:48:44.273Z,96807.50
2019-04-05T13:53:50.197Z,96810.94
2019-04-05T13:58:54.994Z,96811.56
2019-04-05T14:03:59.643Z,96805.70
2019-04-05T14:09:05.907Z,96800.96
2019-04-05T14:14:12.174Z,96794.20
2019-04-05T14:19:19.222Z,96796.29
2019-04-05T14:24:23.980Z,96794.69
2019-04-05T14:29:33.156Z,96787.19
2019-04-05T14:34:38.220Z,96787.53
2019-04-05T14:39:43.998Z,96788.80
2019-04-05T14:44:48.948Z,96788.29
2019-04-05T14:49:53.901Z,96788.59
2019-04-05T14:54:59.979Z,96784.99
2019-04-05T15:00:10.136Z,96781.72
2019-04-05T15:05:20.657Z,96776.37
2019-04-05T15:10:29.293Z,96784.22
2019-04-05T15:15:38.287Z,96782.64
2019-04-05T15:20:47.900Z,96777.16
2019-04-05T15:25:58.820Z,96776.30
2019-04-05T15:31:04.408Z,96777.28
2019-04-05T15:36:09.176Z,96768.59
2019-04-05T15:41:14.041Z,96772.48
2019-04-05T15:46:19.876Z,96771.46
2019-04-05T15:51:25.000Z,96777.75
2019-04-05T15:56:33.252Z,96776.88
2019-04-05T16:01:36.559Z,96781.61
2019-04-05T16:06:41.404Z,96779.91
2019-04-05T16:11:46.969Z,96787.13
2019-04-05T16:16:51.716Z,96783.06
2019-04-05T16:21:59.117Z,96783.72
2019-04-05T16:27:03.964Z,96793.06
2019-04-05T16:32:10.441Z,96789.70
2019-04-05T16:37:15.276Z,96781.67
2019-04-05T16:42:20.033Z,96785.88
2019-04-05T16:47:24.995Z,96783.75
2019-04-05T16:52:29.733Z,96786.72
2019-04-05T16:57:35.605Z,96790.97
2019-04-05T17:02:40.262Z,96793.13
2019-04-05T17:07:45.084Z,96796.98
2019-04-05T17:12:49.931Z,96801.68
2019-04-05T17:17:56.518Z,96798.24
2019-04-05T17:23:01.154Z,96801.48
2019-04-05T17:28:06.108Z,96804.77
2019-04-05T17:33:11.058Z,96806.36
2019-04-05T17:38:15.809Z,96807.73
2019-04-05T17:43:20.749Z,96802.07
2019-04-05T17:48:26.502Z,96808.34
2019-04-05T17:53:31.443Z,96808.59
2019-04-05T17:58:38.024Z,96810.81
2019-04-05T18:03:43.513Z,96809.72
2019-04-05T18:08:48.262Z,96804.96
2019-04-05T18:13:53.031Z,96809.41
2019-04-05T18:18:57.739Z,96809.23
2019-04-05T18:24:04.151Z,96808.50
2019-04-05T18:29:09.278Z,96813.16
2019-04-05T18:34:14.330Z,96801.67
2019-04-05T18:39:21.330Z,96803.02
2019-04-05T18:44:26.264Z,96802.84
2019-04-05T18:49:31.172Z,96809.30
2019-04-05T18:54:36.708Z,96792.87
2019-04-05T18:59:41.528Z,96798.89
2019-04-05T19:04:46.485Z,96787.80
2019-04-05T19:09:51.531Z,96794.09
2019-04-05T19:15:00.733Z,96795.17
2019-04-05T19:20:11.615Z,96789.45
2019-04-05T19:25:23.454Z,96789.05
2019-04-05T19:51:11.263Z,96794.88
2019-04-05T19:56:16.450Z,96795.61
2019-04-05T20:01:25.023Z,96806.83
2019-04-05T20:06:31.037Z,96810.89
2019-04-05T20:11:37.916Z,96808.72
2019-04-05T20:16:46.338Z,96821.16
2019-04-05T20:21:56.907Z,96821.48
2019-04-05T20:27:04.453Z,96818.11
2019-04-05T20:32:09.783Z,96824.42
2019-04-05T20:37:14.645Z,96827.98
2019-04-05T20:42:20.023Z,96818.03
2019-04-05T20:47:25.006Z,96821.75
2019-04-05T20:52:29.800Z,96835.12
2019-04-05T20:57:34.992Z,96830.45
2019-04-05T21:02:41.480Z,96835.50
2019-04-05T21:07:46.770Z,96838.05
2019-04-05T21:12:52.307Z,96840.88
2019-04-05T21:17:58.945Z,96836.44
2019-04-05T21:23:07.164Z,96841.40
2019-04-05T21:28:12.925Z,96846.05
2019-04-05T21:33:18.898Z,96841.59
2019-04-05T21:38:23.850Z,96844.12
2019-04-05T21:43:30.604Z,96848.96
2019-04-05T21:48:35.572Z,96840.00
2019-04-05T21:53:40.576Z,96846.97
2019-04-05T21:58:45.697Z,96842.44
2019-04-05T22:03:50.554Z,96841.88
2019-04-05T22:08:55.376Z,96842.81
2019-04-05T22:14:00.129Z,96841.02
2019-04-05T22:19:05.156Z,96852.47
2019-04-05T22:24:09.910Z,96846.11
2019-04-05T22:29:14.747Z,96847.30
2019-04-05T22:34:19.621Z,96851.73
2019-04-05T22:39:24.567Z,96855.86
2019-04-05T22:44:38.716Z,96860.12
2019-04-05T22:49:36.995Z,96860.52
2019-04-05T22:54:41.752Z,96864.27
2019-04-05T22:59:46.698Z,96873.02
2019-04-05T23:04:51.335Z,96866.36
2019-04-05T23:09:56.080Z,96876.67
2019-04-05T23:15:02.124Z,96884.48
2019-04-05T23:20:08.237Z,96894.28
2019-04-05T23:25:21.519Z,96889.38
2019-04-05T23:30:22.639Z,96892.70
2019-04-05T23:35:27.476Z,96890.21
2019-04-05T23:40:32.980Z,96896.86
2019-04-05T23:45:39.102Z,96885.75
2019-04-05T23:50:43.952Z,96883.81
2019-04-05T23:55:48.691Z,96885.91
